航空気象通報

ウインドサーファーのための航空気象通報による風予報です。

9/23-9/25の航空気象通報

2017年09月23日 21時15分13秒 | TAF
羽田空港
TAF RJTT 231105Z 2312/2418 04006KT 9999 FEW020
BECMG 2322/2400 12006KT
日本時間23日21時-24日07時:040度から6ノットの風
07-09時:風が変化
09時-25日03時:120度から6ノットの風


静岡空港
TAF RJNS 231106Z 2312/2418 36004KT 9999 FEW008 BKN015
BECMG 2400/2403 14010KT
TEMPO 2403/2406 4000 SHRA BR FEW005 BKN008
BECMG 2409/2412 34004KT
日本時間23日21時-24日09時:360度から4ノットの風
09-12時:風が変化
12-18時:140度から10ノットの風
18-21時:風が変化
21時-25日03時:340度から4ノットの風

但し、24日12-15時の間:時々

福岡空港
TAF RJFF 231107Z 2312/2418 16005KT 9999 FEW030
BECMG 2400/2403 32007KT
BECMG 2409/2412 15004KT
日本時間23日21時-24日09時:160度から5ノットの風
09-12時:風が変化
12-18時:320度から7ノットの風
18-21時:風が変化
21時-25日03時:150度から4ノットの風


那覇空港
TAF ROAH 231107Z 2312/2418 22007KT 9999 FEW015 SCT030
BECMG 2403/2406 29006KT
BECMG 2412/2415 14003KT
日本時間23日21時-24日12時:220度から7ノットの風
12-15時:風が変化
15-21時:290度から6ノットの風
21-24時:風が変化
25日00-03時:140度から3ノットの風


石垣空港
TAF ROIG 231109Z 2312/2418 15004KT 9999 FEW015 SCT030
BECMG 2409/2412 11005KT
日本時間23日21時-24日18時:150度から4ノットの風
18-21時:風が変化
21時-25日03時:110度から5ノットの風


マウイのカフルイ空港
PHOG 231120Z 2312/2412 04009KT P6SM FEW035
FM231900 04016G23KT P6SM FEW035 SCT050
FM240500 05009KT P6SM FEW035 SCT050 AMD LTD TO VIS AND WIND TIL 231600
ハワイ時間23日02-09時:040度から9ノットの風
09-19時:040度から16ノット、突風23ノット
19時-24日02時:050度から9ノットの風


サイパン空港
TAF PGSN 231120Z 2312/2412 10012KT P6SM VCSH SCT024 SCT040 BKN100
マリアナ時間23日22時-24日22時:100度から12ノットの風
ジャンル:
お天気
コメント   この記事についてブログを書く
この記事をはてなブックマークに追加
« 9/22-9/24の航空気象通報 | トップ | 9/24-9/26の航空気象通報 »
最近の画像もっと見る

コメントを投稿

ブログ作成者から承認されるまでコメントは反映されません。

TAF」カテゴリの最新記事